Time;durP1;ratioP1;P1;durP2;ratioP2;P2;SDS_P1;SDS_P2;PMS_P1;PMS_P2;Temp;Humidity;BMP_temperature;BMP_pressure;BME280_temperature;BME280_humidity;BME280_pressure;Samples;Min_cycle;Max_cycle;Signal;HPM_P1;HPM_P2
2023/06/26 00:02:12;;;;;;;5.57;3.53;;;26.20;51.70;;;;;;5033709;28;20108;-80
2023/06/26 00:04:38;;;;;;;5.28;3.40;;;26.20;51.60;;;;;;5033719;28;20025;-80
2023/06/26 00:07:06;;;;;;;5.72;3.47;;;26.10;51.50;;;;;;5033870;28;20100;-80
2023/06/26 00:09:32;;;;;;;5.78;3.50;;;26.20;51.60;;;;;;5033809;28;20044;-81
2023/06/26 00:11:59;;;;;;;6.07;3.47;;;26.10;51.40;;;;;;5033376;28;20034;-80
2023/06/26 00:14:25;;;;;;;6.68;3.38;;;26.10;51.50;;;;;;5033277;28;20056;-79
2023/06/26 00:16:51;;;;;;;5.15;3.35;;;26.10;51.60;;;;;;5033347;28;20033;-78
2023/06/26 00:19:17;;;;;;;5.47;3.78;;;26.00;51.40;;;;;;5033051;28;20460;-79
2023/06/26 00:21:47;;;;;;;5.68;3.65;;;25.90;51.50;;;;;;5033120;28;20037;-80
2023/06/26 00:24:16;;;;;;;5.30;3.33;;;25.90;51.50;;;;;;5015272;28;20398;-78
2023/06/26 00:26:43;;;;;;;5.78;3.30;;;25.80;51.70;;;;;;5032853;28;20037;-79
2023/06/26 00:29:08;;;;;;;11.70;8.27;;;25.80;51.30;;;;;;5032855;28;20108;-78
2023/06/26 00:31:35;;;;;;;5.03;3.15;;;25.80;51.40;;;;;;5032653;28;20113;-80
2023/06/26 00:34:01;;;;;;;5.97;3.30;;;25.80;51.60;;;;;;5032998;28;20038;-79
2023/06/26 00:36:27;;;;;;;6.65;3.40;;;25.80;51.60;;;;;;5032676;28;20038;-78
2023/06/26 00:38:53;;;;;;;6.05;3.13;;;25.70;51.50;;;;;;5032657;28;20037;-79
2023/06/26 00:41:19;;;;;;;7.50;3.20;;;25.80;51.10;;;;;;5032342;28;20033;-78
2023/06/26 00:43:45;;;;;;;5.30;3.38;;;25.70;51.10;;;;;;4995048;28;20061;-78
2023/06/26 00:46:13;;;;;;;6.13;3.05;;;25.70;51.00;;;;;;5012491;28;20034;-78
2023/06/26 00:48:41;;;;;;;5.00;3.50;;;25.70;50.90;;;;;;5012789;28;20407;-78
2023/06/26 00:51:07;;;;;;;5.43;3.40;;;25.80;51.00;;;;;;5012537;28;20475;-77
2023/06/26 00:53:33;;;;;;;6.47;3.40;;;25.80;50.90;;;;;;5013865;28;20428;-78
2023/06/26 00:56:00;;;;;;;5.47;3.20;;;25.80;50.80;;;;;;5012709;28;20041;-78
2023/06/26 00:58:26;;;;;;;7.90;3.38;;;25.80;50.90;;;;;;5012497;28;20444;-78
2023/06/26 01:00:52;;;;;;;6.47;3.33;;;25.80;51.20;;;;;;5012550;28;20133;-78
2023/06/26 01:03:19;;;;;;;4.50;3.10;;;25.80;51.30;;;;;;5012710;28;20108;-78
2023/06/26 01:05:49;;;;;;;7.70;3.70;;;25.80;51.40;;;;;;5012493;28;20034;-77
2023/06/26 01:08:15;;;;;;;6.78;3.60;;;25.80;51.40;;;;;;5012537;28;20038;-79
2023/06/26 01:10:42;;;;;;;5.78;3.70;;;25.70;51.70;;;;;;5012222;28;20044;-79
2023/06/26 01:13:08;;;;;;;5.90;3.45;;;25.70;51.70;;;;;;5012492;28;20400;-80
2023/06/26 01:15:34;;;;;;;4.75;3.15;;;25.70;51.70;;;;;;5013345;28;20030;-78
2023/06/26 01:18:03;;;;;;;6.55;3.40;;;25.70;51.70;;;;;;5011093;28;20041;-79
2023/06/26 01:20:32;;;;;;;5.45;3.00;;;25.70;51.50;;;;;;5012292;28;20034;-78
2023/06/26 01:23:15;;;;;;;6.82;3.50;;;25.60;51.70;;;;;;5012189;28;20553;-78
2023/06/26 01:25:47;;;;;;;4.60;2.95;;;25.60;51.90;;;;;;5012621;28;20096;-78
2023/06/26 01:28:13;;;;;;;5.53;3.40;;;25.60;51.90;;;;;;5012905;28;20045;-79
2023/06/26 01:30:42;;;;;;;6.45;3.22;;;25.60;52.10;;;;;;5012380;28;20103;-79
2023/06/26 01:33:08;;;;;;;4.88;3.15;;;25.60;52.00;;;;;;5012471;28;20046;-78
2023/06/26 01:35:35;;;;;;;5.75;3.25;;;25.60;51.80;;;;;;5015200;28;20045;-78
2023/06/26 01:38:18;;;;;;;6.20;3.63;;;25.60;51.70;;;;;;5016404;28;20030;-78
2023/06/26 01:40:44;;;;;;;6.20;3.60;;;25.60;52.10;;;;;;5016490;28;20034;-78
2023/06/26 01:43:48;;;;;;;5.03;3.33;;;25.60;52.00;;;;;;5016592;28;20033;-77
2023/06/26 01:46:24;;;;;;;6.22;3.35;;;25.60;52.60;;;;;;5012969;28;20501;-80
2023/06/26 01:49:13;;;;;;;5.50;3.42;;;25.60;52.50;;;;;;5019265;28;20121;-79
2023/06/26 01:51:45;;;;;;;8.75;4.10;;;25.50;53.30;;;;;;5036063;28;20041;-78
2023/06/26 01:54:15;;;;;;;7.47;3.75;;;25.40;53.30;;;;;;5035856;28;20092;-78
2023/06/26 01:56:43;;;;;;;7.88;3.83;;;25.40;53.20;;;;;;5017850;28;20399;-78
2023/06/26 01:59:10;;;;;;;7.25;3.88;;;25.40;53.40;;;;;;5035736;28;20549;-78
2023/06/26 02:01:35;;;;;;;5.70;3.58;;;25.40;53.50;;;;;;5035700;28;20106;-78
2023/06/26 02:04:01;;;;;;;7.68;4.25;;;25.30;53.50;;;;;;5035636;28;20037;-77
2023/06/26 02:06:27;;;;;;;8.00;3.75;;;25.30;53.30;;;;;;5035492;28;20038;-78
2023/06/26 02:08:52;;;;;;;6.90;3.67;;;25.30;53.60;;;;;;5035589;28;20063;-78
2023/06/26 02:11:18;;;;;;;4.95;3.53;;;25.30;53.50;;;;;;5035318;28;20037;-78
2023/06/26 02:13:44;;;;;;;6.40;3.80;;;25.30;53.50;;;;;;5035357;28;20041;-78
2023/06/26 02:16:09;;;;;;;7.28;3.75;;;25.30;53.70;;;;;;5035466;28;20048;-78
2023/06/26 02:18:35;;;;;;;5.65;3.55;;;25.30;53.40;;;;;;5035373;28;20044;-78
2023/06/26 02:21:03;;;;;;;5.40;3.55;;;25.20;53.00;;;;;;5035292;28;20072;-78
2023/06/26 02:23:29;;;;;;;6.82;3.53;;;25.10;53.30;;;;;;5034961;28;20037;-78
2023/06/26 02:25:54;;;;;;;5.50;3.75;;;25.10;53.00;;;;;;5035034;28;20034;-79
2023/06/26 02:28:20;;;;;;;6.57;3.80;;;25.00;53.10;;;;;;5035825;28;20065;-80
2023/06/26 02:30:46;;;;;;;6.15;3.92;;;25.00;53.00;;;;;;5035720;28;20422;-79
2023/06/26 02:33:11;;;;;;;5.53;3.53;;;25.00;53.30;;;;;;5035170;28;20045;-79
2023/06/26 02:35:37;;;;;;;5.65;3.60;;;24.90;53.20;;;;;;5035171;28;20034;-79
2023/06/26 02:38:03;;;;;;;5.93;3.55;;;24.90;53.40;;;;;;5034978;28;20061;-76
2023/06/26 02:40:28;;;;;;;4.90;3.30;;;24.80;53.30;;;;;;5034844;28;20482;-78
2023/06/26 02:42:54;;;;;;;6.07;3.30;;;24.80;53.30;;;;;;5035768;28;20049;-79
2023/06/26 02:45:19;;;;;;;4.78;3.35;;;24.80;53.40;;;;;;5034558;28;20470;-77
2023/06/26 02:47:45;;;;;;;6.30;3.35;;;24.80;53.40;;;;;;5034214;28;20041;-78
2023/06/26 02:50:11;;;;;;;6.07;3.33;;;24.80;53.50;;;;;;5034708;28;20037;-79
2023/06/26 02:52:36;;;;;;;5.03;3.08;;;24.70;53.40;;;;;;5034554;28;20045;-79
2023/06/26 02:55:03;;;;;;;6.18;3.50;;;24.70;53.70;;;;;;5034676;28;20482;-77
2023/06/26 02:57:28;;;;;;;6.05;3.70;;;24.80;53.80;;;;;;5034390;28;20121;-78
2023/06/26 02:59:54;;;;;;;5.45;3.40;;;24.70;53.40;;;;;;5034581;28;20116;-78
2023/06/26 03:02:20;;;;;;;6.07;3.85;;;24.70;53.60;;;;;;5034598;28;20396;-77
2023/06/26 03:04:45;;;;;;;8.50;4.15;;;24.70;53.60;;;;;;5034704;28;20126;-79
2023/06/26 03:07:11;;;;;;;7.63;4.30;;;24.60;53.50;;;;;;5034331;28;20030;-79
2023/06/26 03:09:37;;;;;;;7.40;4.15;;;24.50;53.60;;;;;;5016528;28;20037;-78
2023/06/26 03:12:03;;;;;;;9.55;4.60;;;24.40;54.00;;;;;;5034120;28;20116;-77
2023/06/26 03:14:29;;;;;;;7.63;3.95;;;24.40;53.90;;;;;;5034227;28;20038;-78
2023/06/26 03:16:57;;;;;;;6.78;4.03;;;24.30;53.80;;;;;;5034689;28;20152;-77
2023/06/26 03:19:23;;;;;;;7.30;4.10;;;24.30;54.00;;;;;;5034086;28;20039;-77
2023/06/26 03:21:49;;;;;;;7.28;4.30;;;24.30;53.90;;;;;;5033986;28;20398;-78
2023/06/26 03:24:15;;;;;;;6.65;4.00;;;24.30;54.00;;;;;;5034055;28;20095;-78
2023/06/26 03:26:40;;;;;;;6.93;4.30;;;24.30;54.10;;;;;;5034339;28;20057;-78
2023/06/26 03:29:06;;;;;;;9.23;4.60;;;24.30;53.90;;;;;;5034771;28;20121;-78
2023/06/26 03:31:31;;;;;;;10.13;4.30;;;24.40;54.00;;;;;;5034046;28;20038;-78
2023/06/26 03:33:58;;;;;;;7.70;4.35;;;24.30;54.30;;;;;;5033963;28;20092;-78
2023/06/26 03:36:23;;;;;;;6.32;4.00;;;24.30;54.70;;;;;;5034104;28;20034;-77
2023/06/26 03:38:49;;;;;;;7.80;4.30;;;24.20;54.70;;;;;;5037722;28;20125;-79
2023/06/26 03:41:15;;;;;;;8.32;4.40;;;24.20;54.60;;;;;;5035991;28;20034;-79
2023/06/26 03:43:40;;;;;;;5.70;3.95;;;24.20;54.90;;;;;;5016960;28;20052;-78
2023/06/26 03:46:06;;;;;;;7.72;4.40;;;24.10;54.70;;;;;;5033652;28;20459;-77
2023/06/26 03:48:32;;;;;;;5.80;3.88;;;24.00;55.00;;;;;;5033347;28;20104;-77
2023/06/26 03:50:58;;;;;;;6.22;4.00;;;23.90;55.00;;;;;;5033492;28;20126;-78
2023/06/26 03:53:24;;;;;;;6.78;3.78;;;23.90;55.30;;;;;;5033292;28;20052;-79
2023/06/26 03:55:49;;;;;;;6.13;3.65;;;23.90;55.20;;;;;;5033450;28;20033;-78
2023/06/26 03:58:15;;;;;;;9.80;3.90;;;23.80;55.40;;;;;;5033371;28;20036;-79
2023/06/26 04:00:41;;;;;;;5.70;4.10;;;23.80;55.40;;;;;;5036976;28;20026;-79
2023/06/26 04:03:06;;;;;;;6.15;4.05;;;23.70;54.80;;;;;;5034961;28;20091;-77
2023/06/26 04:05:32;;;;;;;6.80;4.18;;;23.80;54.90;;;;;;5037033;28;20034;-78
2023/06/26 04:07:58;;;;;;;7.50;5.57;;;23.90;55.10;;;;;;5033408;28;20068;-77
2023/06/26 04:10:23;;;;;;;7.95;4.00;;;23.80;55.10;;;;;;5032984;28;20025;-77
2023/06/26 04:12:49;;;;;;;6.95;4.40;;;23.80;55.20;;;;;;5033163;28;20045;-77
2023/06/26 04:15:15;;;;;;;7.85;4.07;;;23.80;55.30;;;;;;5033114;28;20029;-78
2023/06/26 04:17:40;;;;;;;7.35;4.35;;;23.80;55.30;;;;;;5033296;28;20034;-78
2023/06/26 04:20:07;;;;;;;8.73;4.28;;;23.80;55.50;;;;;;5032958;28;20097;-79
2023/06/26 04:22:33;;;;;;;7.70;4.70;;;23.90;55.50;;;;;;5032922;28;20037;-72
2023/06/26 04:25:01;;;;;;;6.43;3.90;;;23.90;55.20;;;;;;5032785;28;20036;-77
2023/06/26 04:27:27;;;;;;;6.68;3.70;;;24.00;54.90;;;;;;5032861;28;20045;-77
2023/06/26 04:29:53;;;;;;;8.50;4.47;;;24.00;54.60;;;;;;5015262;28;20367;-78
2023/06/26 04:32:18;;;;;;;6.90;3.75;;;24.00;55.10;;;;;;5033053;28;20033;-78
2023/06/26 04:34:44;;;;;;;7.18;4.38;;;23.90;55.70;;;;;;5033690;28;20056;-78
2023/06/26 04:37:10;;;;;;;10.40;4.22;;;24.00;55.10;;;;;;5014825;28;20030;-78
2023/06/26 04:39:37;;;;;;;8.48;4.65;;;23.90;55.20;;;;;;5032448;28;20073;-78
2023/06/26 04:42:04;;;;;;;9.68;4.57;;;23.90;55.30;;;;;;5032780;28;20391;-78
2023/06/26 04:44:29;;;;;;;7.95;4.63;;;24.00;55.60;;;;;;5032137;28;20356;-77
2023/06/26 04:46:55;;;;;;;7.50;4.13;;;23.90;55.90;;;;;;5032418;28;20080;-79
2023/06/26 04:49:21;;;;;;;6.07;3.88;;;23.90;55.90;;;;;;5032444;28;20459;-77
2023/06/26 04:51:48;;;;;;;7.68;4.45;;;23.80;55.70;;;;;;5032660;28;20030;-78
2023/06/26 04:54:14;;;;;;;6.70;3.97;;;23.90;56.00;;;;;;5032454;28;20141;-79
2023/06/26 04:56:43;;;;;;;8.15;4.15;;;23.90;55.90;;;;;;5032402;28;20104;-77
2023/06/26 04:59:13;;;;;;;6.75;3.97;;;23.80;56.10;;;;;;5032855;28;20128;-78
2023/06/26 05:01:39;;;;;;;7.25;4.05;;;23.90;55.40;;;;;;5032556;28;20033;-78
2023/06/26 05:04:08;;;;;;;6.53;4.10;;;23.80;55.30;;;;;;5032477;28;20049;-79
2023/06/26 05:06:34;;;;;;;6.50;4.38;;;23.80;55.90;;;;;;5032560;28;20029;-80
2023/06/26 05:08:59;;;;;;;5.68;3.75;;;23.90;55.90;;;;;;5013895;28;20517;-78
2023/06/26 05:11:25;;;;;;;6.57;3.72;;;24.00;55.20;;;;;;5032366;28;20029;-79
2023/06/26 05:13:51;;;;;;;6.80;3.90;;;24.00;55.80;;;;;;5032512;28;20037;-78
2023/06/26 05:16:17;;;;;;;6.50;4.20;;;24.00;55.70;;;;;;5032378;28;20040;-79
2023/06/26 05:18:42;;;;;;;5.85;3.85;;;24.30;55.50;;;;;;5032680;28;20033;-80
2023/06/26 05:21:08;;;;;;;8.38;4.50;;;24.70;54.80;;;;;;5032743;28;20044;-81
2023/06/26 05:23:34;;;;;;;7.22;4.50;;;25.00;54.40;;;;;;5032299;28;20491;-79
2023/06/26 05:26:02;;;;;;;6.60;4.05;;;25.30;54.00;;;;;;5032637;28;20033;-79
2023/06/26 05:28:30;;;;;;;8.90;4.03;;;25.60;52.80;;;;;;5033979;28;20041;-79
2023/06/26 05:30:57;;;;;;;7.07;4.15;;;25.90;51.90;;;;;;5031809;28;20030;-79
2023/06/26 05:33:24;;;;;;;9.00;4.22;;;26.30;51.40;;;;;;5031833;28;20530;-78
2023/06/26 05:35:53;;;;;;;7.15;4.20;;;26.60;51.60;;;;;;5031640;28;20030;-80
2023/06/26 05:38:19;;;;;;;8.90;4.07;;;26.90;51.30;;;;;;5032004;28;20483;-80
2023/06/26 05:40:45;;;;;;;11.05;4.47;;;27.20;50.80;;;;;;5032296;28;20029;-79
2023/06/26 05:43:11;;;;;;;7.05;3.78;;;27.40;50.30;;;;;;5031656;28;20075;-79
2023/06/26 05:45:37;;;;;;;9.32;4.03;;;27.70;50.00;;;;;;5031585;28;20438;-80
2023/06/26 05:48:03;;;;;;;7.18;3.95;;;28.10;49.50;;;;;;5031723;28;20095;-79
2023/06/26 05:50:29;;;;;;;9.52;3.75;;;28.30;49.10;;;;;;5031412;28;20028;-81
2023/06/26 05:52:55;;;;;;;7.28;4.80;;;28.60;48.50;;;;;;5031305;28;20038;-80
2023/06/26 05:55:21;;;;;;;8.20;4.22;;;28.60;48.40;;;;;;5031207;28;20028;-78
2023/06/26 05:57:47;;;;;;;8.05;4.38;;;28.80;48.10;;;;;;5031125;28;20068;-79
2023/06/26 06:00:14;;;;;;;8.63;4.10;;;28.90;47.90;;;;;;5031324;28;20037;-78
2023/06/26 06:02:42;;;;;;;10.60;4.22;;;28.90;48.10;;;;;;5013848;28;20037;-79
2023/06/26 06:05:08;;;;;;;6.80;3.95;;;29.10;48.30;;;;;;5031546;28;20491;-78
2023/06/26 06:07:35;;;;;;;5.90;3.88;;;29.20;47.90;;;;;;5031164;28;20025;-79
2023/06/26 06:10:02;;;;;;;14.55;3.88;;;29.50;47.80;;;;;;5031242;28;20061;-79
2023/06/26 06:12:28;;;;;;;7.22;4.20;;;29.60;47.60;;;;;;5030908;28;20128;-78
2023/06/26 06:14:55;;;;;;;9.10;4.28;;;29.70;47.60;;;;;;5031552;28;20154;-79
2023/06/26 06:17:21;;;;;;;9.90;4.90;;;29.90;47.40;;;;;;5031317;28;20025;-79
2023/06/26 06:19:47;;;;;;;6.93;4.03;;;30.10;47.30;;;;;;5031350;28;20103;-78
2023/06/26 06:22:13;;;;;;;12.27;4.00;;;30.10;47.20;;;;;;5034783;28;20047;-78
2023/06/26 06:24:39;;;;;;;6.15;3.63;;;30.00;47.10;;;;;;5035065;28;20061;-78
2023/06/26 06:27:04;;;;;;;5.63;3.67;;;30.00;47.30;;;;;;5034978;28;20064;-78
2023/06/26 06:29:30;;;;;;;6.95;4.32;;;30.20;47.10;;;;;;5034492;28;20038;-79
2023/06/26 06:31:56;;;;;;;10.38;4.03;;;30.20;46.90;;;;;;5034640;28;20523;-80
2023/06/26 06:34:22;;;;;;;7.30;4.10;;;30.30;47.20;;;;;;5034690;28;20126;-78
2023/06/26 06:36:49;;;;;;;10.10;4.03;;;30.30;47.00;;;;;;5034837;28;20025;-79
2023/06/26 06:39:15;;;;;;;9.93;4.07;;;30.40;47.00;;;;;;5034461;28;20037;-79
2023/06/26 06:41:41;;;;;;;6.97;3.80;;;30.60;47.10;;;;;;5034248;28;20107;-77
2023/06/26 06:44:06;;;;;;;8.23;4.20;;;30.60;47.10;;;;;;5034324;28;20083;-79
2023/06/26 06:46:32;;;;;;;9.70;3.83;;;30.80;46.70;;;;;;5034344;28;20037;-79
2023/06/26 06:48:58;;;;;;;8.30;3.55;;;30.70;46.80;;;;;;5034122;28;20536;-79
2023/06/26 06:51:24;;;;;;;10.65;4.00;;;30.90;46.40;;;;;;5034275;28;20029;-78
2023/06/26 06:53:49;;;;;;;8.15;3.85;;;31.00;46.60;;;;;;5034050;28;20068;-80
2023/06/26 06:56:15;;;;;;;9.98;4.00;;;31.20;46.20;;;;;;5033895;28;20437;-78
2023/06/26 06:58:43;;;;;;;6.53;3.40;;;31.30;46.00;;;;;;5033912;28;20033;-78
2023/06/26 07:01:11;;;;;;;7.53;4.28;;;31.30;45.90;;;;;;5033891;28;20026;-78
2023/06/26 07:03:37;;;;;;;10.57;3.72;;;31.00;45.90;;;;;;5034103;28;20340;-79
2023/06/26 07:06:03;;;;;;;8.27;4.20;;;30.90;46.30;;;;;;5034053;28;20041;-80
2023/06/26 07:08:29;;;;;;;7.18;3.60;;;31.00;46.00;;;;;;5033762;28;20093;-80
2023/06/26 07:10:58;;;;;;;11.70;4.10;;;31.10;46.10;;;;;;5034504;28;20394;-79
2023/06/26 07:13:24;;;;;;;6.95;3.80;;;31.30;46.10;;;;;;5033833;28;20041;-77
2023/06/26 07:15:50;;;;;;;11.32;4.22;;;31.30;45.90;;;;;;5034092;28;20040;-79
2023/06/26 07:18:15;;;;;;;8.68;4.30;;;31.30;45.90;;;;;;5034260;28;20033;-79
2023/06/26 07:20:41;;;;;;;10.23;4.65;;;31.50;45.80;;;;;;5033494;28;20033;-78
2023/06/26 07:23:07;;;;;;;8.68;3.88;;;31.60;45.70;;;;;;5033483;28;20044;-79
2023/06/26 07:25:33;;;;;;;7.45;4.53;;;31.60;46.20;;;;;;5033632;28;20057;-78
2023/06/26 07:27:59;;;;;;;6.25;4.05;;;31.50;45.70;;;;;;5015998;28;20065;-79
2023/06/26 07:30:25;;;;;;;18.30;3.78;;;31.60;45.80;;;;;;5034145;28;20123;-79
2023/06/26 07:32:50;;;;;;;6.03;4.05;;;31.80;45.70;;;;;;5032646;28;20494;-79
2023/06/26 07:35:17;;;;;;;10.90;5.10;;;31.60;45.80;;;;;;5033259;28;20450;-78
2023/06/26 07:37:42;;;;;;;7.50;4.00;;;31.60;45.50;;;;;;5033631;28;20541;-79
2023/06/26 07:40:09;;;;;;;9.65;4.00;;;31.50;45.90;;;;;;5033558;28;20026;-80
2023/06/26 07:42:35;;;;;;;10.07;3.90;;;31.50;45.70;;;;;;5015496;28;20060;-80
2023/06/26 07:45:01;;;;;;;8.82;4.28;;;31.50;45.90;;;;;;5033700;28;20122;-80
2023/06/26 07:47:26;;;;;;;10.10;3.92;;;31.40;46.20;;;;;;5034753;28;20033;-79
2023/06/26 07:49:52;;;;;;;7.30;3.58;;;31.50;46.40;;;;;;5033333;28;20044;-80
2023/06/26 07:52:19;;;;;;;12.40;4.07;;;31.60;46.30;;;;;;5033825;28;20044;-80
2023/06/26 07:54:44;;;;;;;10.55;4.45;;;31.60;46.10;;;;;;5034423;28;20045;-79
2023/06/26 07:57:11;;;;;;;7.35;4.10;;;31.50;46.60;;;;;;5032948;28;20370;-78
2023/06/26 07:59:37;;;;;;;8.77;4.68;;;31.50;46.60;;;;;;5033356;28;20049;-79
2023/06/26 08:02:03;;;;;;;8.07;4.25;;;31.50;46.70;;;;;;5034248;28;20037;-79
2023/06/26 08:04:31;;;;;;;6.18;3.80;;;31.40;46.80;;;;;;5034883;28;20116;-78
2023/06/26 08:06:58;;;;;;;7.10;3.97;;;31.40;47.10;;;;;;5032985;28;20471;-80
2023/06/26 08:09:27;;;;;;;10.50;4.15;;;31.40;47.10;;;;;;5015515;28;20036;-81
2023/06/26 08:11:53;;;;;;;10.43;4.40;;;31.40;47.20;;;;;;5015722;28;20398;-81
2023/06/26 08:14:19;;;;;;;10.93;4.22;;;31.30;47.40;;;;;;5033182;28;20038;-81
2023/06/26 08:16:45;;;;;;;8.75;4.70;;;31.20;47.70;;;;;;5015065;28;20048;-80
2023/06/26 08:19:12;;;;;;;7.43;4.05;;;31.10;48.30;;;;;;5033106;28;20048;-81
2023/06/26 08:21:38;;;;;;;10.50;4.30;;;31.10;48.70;;;;;;5032686;28;20037;-79
2023/06/26 08:24:04;;;;;;;9.07;4.30;;;31.10;48.50;;;;;;5015039;28;20521;-81
2023/06/26 08:26:29;;;;;;;9.88;4.07;;;31.00;48.60;;;;;;5032508;28;20116;-79
2023/06/26 08:28:55;;;;;;;8.57;3.95;;;30.90;48.60;;;;;;5016009;28;20025;-78
2023/06/26 08:31:21;;;;;;;8.00;4.70;;;30.80;48.70;;;;;;5035384;28;20392;-80
2023/06/26 08:33:47;;;;;;;8.63;4.40;;;30.70;48.90;;;;;;5033987;28;20112;-79
2023/06/26 08:36:13;;;;;;;8.02;4.30;;;30.60;49.20;;;;;;5032563;28;20483;-81
2023/06/26 08:38:42;;;;;;;8.35;4.10;;;30.50;49.60;;;;;;5033452;28;20063;-81
2023/06/26 08:41:08;;;;;;;8.05;4.43;;;30.40;49.00;;;;;;5033117;28;20041;-80
2023/06/26 08:43:35;;;;;;;8.35;3.83;;;30.40;49.80;;;;;;5032487;28;20515;-80
2023/06/26 08:46:00;;;;;;;7.63;3.95;;;30.40;50.00;;;;;;5018696;28;20059;-80
2023/06/26 08:48:30;;;;;;;7.95;4.40;;;30.40;49.90;;;;;;5032264;28;20048;-73
2023/06/26 08:51:00;;;;;;;13.57;4.43;;;30.20;50.10;;;;;;5033073;28;20436;-79
2023/06/26 08:53:47;;;;;;;8.65;4.53;;;30.20;50.20;;;;;;5034346;28;20212;-80
2023/06/26 08:56:17;;;;;;;12.40;4.15;;;30.20;49.40;;;;;;5014860;28;20103;-81
2023/06/26 08:58:43;;;;;;;7.53;4.40;;;30.10;50.60;;;;;;5032675;28;20037;-81
2023/06/26 09:01:09;;;;;;;10.13;4.45;;;30.10;50.80;;;;;;5033180;28;20029;-80
2023/06/26 09:03:35;;;;;;;10.35;4.10;;;30.20;50.80;;;;;;5032662;28;20077;-80
2023/06/26 09:06:01;;;;;;;12.20;4.78;;;30.00;50.80;;;;;;5032968;28;20029;-81
2023/06/26 09:08:27;;;;;;;9.20;4.80;;;30.00;51.00;;;;;;5033901;28;20044;-80
2023/06/26 09:10:52;;;;;;;8.02;4.32;;;29.90;50.90;;;;;;5033411;28;20391;-79
2023/06/26 09:13:19;;;;;;;8.05;4.18;;;29.90;51.00;;;;;;5032171;28;20045;-80
2023/06/26 09:15:45;;;;;;;7.35;4.43;;;30.00;51.00;;;;;;5032164;28;20101;-79
2023/06/26 09:18:12;;;;;;;10.40;4.30;;;30.00;51.30;;;;;;5032176;28;20368;-81
2023/06/26 09:20:37;;;;;;;8.30;4.88;;;30.00;51.40;;;;;;5034065;28;20112;-80
2023/06/26 09:23:04;;;;;;;9.88;4.55;;;30.00;51.30;;;;;;5032575;28;20091;-81
2023/06/26 09:25:30;;;;;;;10.15;4.72;;;30.00;51.20;;;;;;5032500;28;20057;-79
2023/06/26 09:27:57;;;;;;;9.98;4.60;;;30.00;51.30;;;;;;5032023;28;20480;-80
2023/06/26 09:30:22;;;;;;;10.32;5.32;;;29.90;51.30;;;;;;5031780;28;20042;-80
2023/06/26 09:32:50;;;;;;;8.57;4.72;;;29.90;51.30;;;;;;5031929;28;20061;-80
2023/06/26 09:35:16;;;;;;;7.85;4.70;;;29.80;51.40;;;;;;5032293;28;20033;-79
2023/06/26 09:37:43;;;;;;;13.77;4.72;;;29.80;51.30;;;;;;5032627;28;20041;-80
2023/06/26 09:40:09;;;;;;;10.00;4.57;;;29.80;51.30;;;;;;5015129;28;20065;-80
2023/06/26 09:42:35;;;;;;;8.23;4.43;;;29.90;51.10;;;;;;5032476;28;20033;-82
2023/06/26 09:45:02;;;;;;;8.93;4.40;;;29.90;51.10;;;;;;5032071;28;20143;-79
2023/06/26 09:47:30;;;;;;;11.00;4.25;;;29.90;51.10;;;;;;5031855;28;20034;-80
2023/06/26 09:49:56;;;;;;;11.95;5.47;;;30.00;50.90;;;;;;5031953;28;20047;-82
2023/06/26 09:52:25;;;;;;;9.45;4.57;;;30.10;50.90;;;;;;5031594;28;20543;-80
2023/06/26 09:55:06;;;;;;;12.23;4.40;;;30.20;51.00;;;;;;5032126;28;20037;-81
2023/06/26 09:57:34;;;;;;;9.00;4.13;;;30.20;50.90;;;;;;5036673;28;20037;-80
2023/06/26 10:00:01;;;;;;;13.05;4.85;;;30.20;50.30;;;;;;5042218;28;20034;-81
2023/06/26 10:02:27;;;;;;;13.57;4.72;;;30.10;50.40;;;;;;5036313;28;20052;-81
2023/06/26 10:04:53;;;;;;;8.95;4.53;;;30.10;50.20;;;;;;5035989;28;20108;-80
2023/06/26 10:07:19;;;;;;;11.98;4.50;;;30.20;49.90;;;;;;5037244;28;20041;-80
2023/06/26 10:09:48;;;;;;;9.55;4.47;;;30.30;49.80;;;;;;5037898;28;20472;-81
2023/06/26 10:12:28;;;;;;;11.45;4.68;;;30.30;49.90;;;;;;5043742;28;20037;-81
2023/06/26 10:14:55;;;;;;;8.48;4.70;;;30.30;49.40;;;;;;5039557;28;20048;-81
2023/06/26 10:17:22;;;;;;;11.50;4.32;;;30.30;49.00;;;;;;5037984;28;20037;-79
2023/06/26 10:19:49;;;;;;;6.75;4.18;;;30.30;48.20;;;;;;5036313;28;20037;-80
2023/06/26 10:22:17;;;;;;;9.50;4.00;;;30.40;47.70;;;;;;5018545;28;20472;-76
2023/06/26 10:24:45;;;;;;;7.20;3.83;;;30.40;47.40;;;;;;5035526;28;20041;-82
2023/06/26 10:27:18;;;;;;;8.10;3.72;;;30.40;46.60;;;;;;5036787;28;20033;-80
2023/06/26 10:29:54;;;;;;;8.38;3.75;;;30.40;46.20;;;;;;5036183;28;20064;-78
2023/06/26 10:32:21;;;;;;;7.68;3.83;;;30.40;46.00;;;;;;5038556;28;20038;-80
2023/06/26 10:34:47;;;;;;;8.55;4.10;;;30.40;45.60;;;;;;5035572;28;20037;-80
2023/06/26 10:37:13;;;;;;;7.80;4.05;;;30.50;45.40;;;;;;5035747;28;20100;-81
2023/06/26 10:39:49;;;;;;;8.15;3.83;;;30.60;45.50;;;;;;5035935;28;20120;-80
2023/06/26 10:42:17;;;;;;;7.68;4.00;;;30.60;44.20;;;;;;5035444;28;20065;-80
2023/06/26 10:44:47;;;;;;;9.80;4.57;;;30.70;45.40;;;;;;5035284;28;20476;-79
2023/06/26 10:47:35;;;;;;;6.82;4.28;;;30.80;45.90;;;;;;5035161;28;20037;-79
2023/06/26 10:50:22;;;;;;;7.18;4.15;;;30.90;45.70;;;;;;5034413;28;20048;-80
2023/06/26 10:53:20;;;;;;;8.45;4.32;;;30.90;45.10;;;;;;5017599;28;20038;-79
2023/06/26 10:55:51;;;;;;;14.77;4.10;;;31.00;43.90;;;;;;5035303;28;20036;-77
2023/06/26 10:58:42;;;;;;;7.85;3.80;;;31.00;44.70;;;;;;5035024;28;20172;-81
2023/06/26 11:01:24;;;;;;;6.43;3.85;;;31.00;43.70;;;;;;5034695;28;20076;-80
2023/06/26 11:04:01;;;;;;;6.03;3.80;;;31.00;45.10;;;;;;5017442;28;20103;-81
2023/06/26 11:06:29;;;;;;;8.10;3.55;;;31.00;44.40;;;;;;5034453;28;20038;-81
2023/06/26 11:09:04;;;;;;;6.20;3.78;;;31.00;44.30;;;;;;5016949;28;20030;-80
2023/06/26 11:11:52;;;;;;;9.80;4.20;;;31.10;44.00;;;;;;5035005;28;20030;-80
2023/06/26 11:14:24;;;;;;;8.30;4.10;;;31.10;43.20;;;;;;5043832;28;20049;-82
2023/06/26 11:16:51;;;;;;;7.75;3.60;;;31.20;44.10;;;;;;5035508;28;20026;-80
2023/06/26 11:19:18;;;;;;;8.32;4.03;;;31.30;43.70;;;;;;5034445;28;20112;-81
2023/06/26 11:21:44;;;;;;;7.82;4.28;;;31.20;43.80;;;;;;5034455;28;20037;-80
2023/06/26 11:24:11;;;;;;;9.07;4.25;;;31.20;43.90;;;;;;5016703;28;20048;-80
2023/06/26 11:26:42;;;;;;;11.45;4.05;;;31.30;44.20;;;;;;5035390;28;20037;-80
2023/06/26 11:29:08;;;;;;;7.93;4.10;;;31.40;44.40;;;;;;5034934;28;20108;-80
2023/06/26 11:31:36;;;;;;;6.05;4.20;;;31.50;44.40;;;;;;5035243;28;20026;-81
2023/06/26 11:34:09;;;;;;;6.32;4.18;;;31.50;44.10;;;;;;5035041;28;20100;-80
2023/06/26 11:36:37;;;;;;;9.75;4.50;;;31.70;44.00;;;;;;5035061;28;20040;-80
2023/06/26 11:39:08;;;;;;;10.40;4.20;;;31.80;43.50;;;;;;5016997;28;20515;-81
2023/06/26 11:41:38;;;;;;;8.60;4.20;;;31.90;43.60;;;;;;5017854;28;20044;-82
2023/06/26 11:44:09;;;;;;;5.60;4.18;;;31.90;43.00;;;;;;5035706;28;20077;-81
2023/06/26 11:46:36;;;;;;;7.18;4.25;;;32.10;43.40;;;;;;5034726;28;20025;-80
2023/06/26 11:49:06;;;;;;;7.22;4.20;;;32.20;43.20;;;;;;5035007;28;20034;-80
2023/06/26 11:51:33;;;;;;;6.40;4.13;;;32.30;43.30;;;;;;5036256;28;20039;-82
2023/06/26 11:54:02;;;;;;;8.10;4.18;;;32.30;43.20;;;;;;5035077;28;20041;-80
2023/06/26 11:56:28;;;;;;;6.20;3.63;;;32.40;43.40;;;;;;5034713;28;20156;-78
2023/06/26 11:59:00;;;;;;;6.32;4.10;;;32.40;43.20;;;;;;5034295;28;20037;-79
2023/06/26 12:01:30;;;;;;;6.63;3.63;;;32.30;42.80;;;;;;5033901;28;20087;-81
2023/06/26 12:04:01;;;;;;;6.88;4.20;;;32.40;42.90;;;;;;5034235;28;20056;-81
2023/06/26 12:06:27;;;;;;;6.30;4.38;;;32.40;42.80;;;;;;5033919;28;20025;-80
2023/06/26 12:08:54;;;;;;;8.32;4.70;;;32.40;42.50;;;;;;5034007;28;20100;-80
2023/06/26 12:11:23;;;;;;;7.65;4.40;;;32.50;42.20;;;;;;5016181;28;20033;-81
2023/06/26 12:13:49;;;;;;;9.52;4.32;;;32.50;42.40;;;;;;5033845;28;20060;-79
2023/06/26 12:16:15;;;;;;;5.97;4.40;;;32.60;41.70;;;;;;5033993;28;20069;-81
2023/06/26 12:18:41;;;;;;;7.57;4.38;;;32.70;41.60;;;;;;5015441;28;20073;-81
2023/06/26 12:21:06;;;;;;;7.40;4.70;;;32.70;42.80;;;;;;5033467;28;20033;-80
2023/06/26 12:23:41;;;;;;;9.55;4.75;;;32.80;44.80;;;;;;5015777;28;20392;-78
2023/06/26 12:26:20;;;;;;;12.00;4.88;;;32.90;46.30;;;;;;5033729;28;20101;-80
2023/06/26 12:28:47;;;;;;;7.53;4.40;;;32.90;46.90;;;;;;5036945;28;20514;-81
2023/06/26 12:31:17;;;;;;;9.20;4.57;;;33.00;46.90;;;;;;5033220;28;20030;-80
2023/06/26 12:33:44;;;;;;;8.48;4.47;;;32.90;47.00;;;;;;5015351;28;20557;-80
2023/06/26 12:36:13;;;;;;;10.90;4.38;;;32.90;46.90;;;;;;5033224;28;20124;-80
2023/06/26 12:38:40;;;;;;;10.48;4.97;;;33.00;47.10;;;;;;5034426;28;20117;-80
2023/06/26 12:41:15;;;;;;;10.00;4.45;;;33.00;47.30;;;;;;5034667;28;20104;-79
2023/06/26 12:43:41;;;;;;;13.82;5.18;;;33.10;46.70;;;;;;5033255;28;20061;-80
2023/06/26 12:46:07;;;;;;;10.75;4.50;;;33.10;48.10;;;;;;5033550;28;20029;-79
2023/06/26 12:48:45;;;;;;;9.65;4.60;;;33.20;47.80;;;;;;5033357;28;20471;-80